Terminal Aerodrome Forecast
Issued by NWS

Home | Current Version | Previous Version | Text Only | Print | Product List | Glossary On
Versions: 1 2 3 4 5 6 7 8 9 10 11 12 13 14 15 16 17
481
FTUS44 KEPZ 191127
TAFDMN
TAF
KDMN 191127Z 1912/2012 26010KT P6SM SCT250
     FM191800 26022G32KT P6SM SCT100 BKN250
     FM200200 27010KT P6SM SCT100 BKN250=

USA.gov is the U.S. government's official web portal to all federal, state and local government web resources and services.